sensor_id;sensor_type;location;lat;lon;timestamp;P1;durP1;ratioP1;P2;durP2;ratioP2
28431;SDS011;15664;51.302;7.744;2022-09-03T00:04:36;3.40;;;1.70;;
28431;SDS011;15664;51.302;7.744;2022-09-03T00:07:11;3.50;;;1.77;;
28431;SDS011;15664;51.302;7.744;2022-09-03T00:09:48;4.15;;;1.90;;
28431;SDS011;15664;51.302;7.744;2022-09-03T00:12:24;3.50;;;1.70;;
28431;SDS011;15664;51.302;7.744;2022-09-03T00:15:06;6.13;;;2.00;;
28431;SDS011;15664;51.302;7.744;2022-09-03T00:17:35;3.73;;;1.70;;
28431;SDS011;15664;51.302;7.744;2022-09-03T00:20:24;4.93;;;1.73;;
28431;SDS011;15664;51.302;7.744;2022-09-03T00:22:57;4.70;;;1.60;;
28431;SDS011;15664;51.302;7.744;2022-09-03T00:28:17;3.72;;;1.85;;
28431;SDS011;15664;51.302;7.744;2022-09-03T00:30:49;4.47;;;1.90;;
28431;SDS011;15664;51.302;7.744;2022-09-03T00:33:22;3.10;;;1.73;;
28431;SDS011;15664;51.302;7.744;2022-09-03T00:36:03;4.50;;;1.67;;
28431;SDS011;15664;51.302;7.744;2022-09-03T00:38:36;4.45;;;1.80;;
28431;SDS011;15664;51.302;7.744;2022-09-03T00:46:59;2.97;;;1.60;;
28431;SDS011;15664;51.302;7.744;2022-09-03T00:49:34;4.07;;;2.03;;
28431;SDS011;15664;51.302;7.744;2022-09-03T01:00:53;4.55;;;1.88;;
28431;SDS011;15664;51.302;7.744;2022-09-03T01:06:18;3.87;;;1.97;;
28431;SDS011;15664;51.302;7.744;2022-09-03T01:19:55;3.70;;;1.87;;
28431;SDS011;15664;51.302;7.744;2022-09-03T01:22:49;3.40;;;1.80;;
28431;SDS011;15664;51.302;7.744;2022-09-03T01:26:44;3.58;;;1.77;;
28431;SDS011;15664;51.302;7.744;2022-09-03T01:32:06;3.55;;;1.83;;
28431;SDS011;15664;51.302;7.744;2022-09-03T01:43:26;3.07;;;1.67;;
28431;SDS011;15664;51.302;7.744;2022-09-03T01:45:53;3.90;;;1.90;;
28431;SDS011;15664;51.302;7.744;2022-09-03T01:51:19;4.40;;;1.75;;
28431;SDS011;15664;51.302;7.744;2022-09-03T01:59:58;2.55;;;1.40;;
28431;SDS011;15664;51.302;7.744;2022-09-03T02:02:36;5.32;;;1.70;;
28431;SDS011;15664;51.302;7.744;2022-09-03T02:05:05;2.90;;;1.65;;
28431;SDS011;15664;51.302;7.744;2022-09-03T02:07:37;3.58;;;1.95;;
28431;SDS011;15664;51.302;7.744;2022-09-03T02:10:06;3.03;;;1.70;;
28431;SDS011;15664;51.302;7.744;2022-09-03T02:12:35;3.95;;;2.00;;
28431;SDS011;15664;51.302;7.744;2022-09-03T02:15:07;4.88;;;1.73;;
28431;SDS011;15664;51.302;7.744;2022-09-03T02:17:36;3.08;;;1.63;;
28431;SDS011;15664;51.302;7.744;2022-09-03T02:20:05;4.43;;;1.83;;
28431;SDS011;15664;51.302;7.744;2022-09-03T02:22:35;5.03;;;2.03;;
28431;SDS011;15664;51.302;7.744;2022-09-03T02:25:03;3.15;;;1.60;;
28431;SDS011;15664;51.302;7.744;2022-09-03T02:27:29;4.72;;;1.88;;
28431;SDS011;15664;51.302;7.744;2022-09-03T02:29:55;4.80;;;1.80;;
28431;SDS011;15664;51.302;7.744;2022-09-03T02:32:21;3.42;;;1.90;;
28431;SDS011;15664;51.302;7.744;2022-09-03T02:34:46;3.77;;;1.90;;
28431;SDS011;15664;51.302;7.744;2022-09-03T02:37:15;4.13;;;1.80;;
28431;SDS011;15664;51.302;7.744;2022-09-03T02:39:42;5.23;;;2.00;;
28431;SDS011;15664;51.302;7.744;2022-09-03T02:42:09;3.78;;;1.80;;
28431;SDS011;15664;51.302;7.744;2022-09-03T02:44:37;4.70;;;1.88;;
28431;SDS011;15664;51.302;7.744;2022-09-03T02:47:07;3.60;;;1.50;;
28431;SDS011;15664;51.302;7.744;2022-09-03T02:49:33;5.53;;;1.87;;
28431;SDS011;15664;51.302;7.744;2022-09-03T02:51:59;4.10;;;1.80;;
28431;SDS011;15664;51.302;7.744;2022-09-03T02:54:29;3.08;;;1.75;;
28431;SDS011;15664;51.302;7.744;2022-09-03T02:56:55;4.75;;;1.77;;
28431;SDS011;15664;51.302;7.744;2022-09-03T02:59:20;2.63;;;1.50;;
28431;SDS011;15664;51.302;7.744;2022-09-03T03:01:47;4.15;;;1.80;;
28431;SDS011;15664;51.302;7.744;2022-09-03T03:04:12;3.67;;;1.90;;
28431;SDS011;15664;51.302;7.744;2022-09-03T03:06:37;3.97;;;1.90;;
28431;SDS011;15664;51.302;7.744;2022-09-03T03:09:03;2.72;;;1.65;;
28431;SDS011;15664;51.302;7.744;2022-09-03T03:11:31;4.07;;;2.23;;
28431;SDS011;15664;51.302;7.744;2022-09-03T03:13:57;3.47;;;1.77;;
28431;SDS011;15664;51.302;7.744;2022-09-03T03:16:22;2.77;;;1.70;;
28431;SDS011;15664;51.302;7.744;2022-09-03T03:18:47;4.55;;;1.67;;
28431;SDS011;15664;51.302;7.744;2022-09-03T03:21:14;3.93;;;1.77;;
28431;SDS011;15664;51.302;7.744;2022-09-03T03:23:40;3.83;;;1.90;;
28431;SDS011;15664;51.302;7.744;2022-09-03T03:26:07;3.47;;;1.50;;
28431;SDS011;15664;51.302;7.744;2022-09-03T03:28:34;3.38;;;1.67;;
28431;SDS011;15664;51.302;7.744;2022-09-03T03:31:10;4.13;;;1.93;;
28431;SDS011;15664;51.302;7.744;2022-09-03T03:33:43;3.30;;;1.70;;
28431;SDS011;15664;51.302;7.744;2022-09-03T03:36:10;4.60;;;1.90;;
28431;SDS011;15664;51.302;7.744;2022-09-03T03:38:38;3.95;;;1.92;;
28431;SDS011;15664;51.302;7.744;2022-09-03T03:41:22;5.82;;;1.60;;
28431;SDS011;15664;51.302;7.744;2022-09-03T03:43:53;3.47;;;2.03;;
28431;SDS011;15664;51.302;7.744;2022-09-03T03:46:19;3.85;;;1.60;;
28431;SDS011;15664;51.302;7.744;2022-09-03T03:48:46;3.58;;;1.70;;
28431;SDS011;15664;51.302;7.744;2022-09-03T03:51:12;3.67;;;1.70;;
28431;SDS011;15664;51.302;7.744;2022-09-03T03:53:37;5.90;;;1.80;;
28431;SDS011;15664;51.302;7.744;2022-09-03T03:56:04;3.50;;;1.50;;
28431;SDS011;15664;51.302;7.744;2022-09-03T03:58:32;3.97;;;1.73;;
28431;SDS011;15664;51.302;7.744;2022-09-03T04:01:08;3.35;;;1.63;;
28431;SDS011;15664;51.302;7.744;2022-09-03T04:03:36;3.10;;;1.73;;
28431;SDS011;15664;51.302;7.744;2022-09-03T04:06:02;3.40;;;1.70;;
28431;SDS011;15664;51.302;7.744;2022-09-03T04:08:28;3.17;;;1.50;;
28431;SDS011;15664;51.302;7.744;2022-09-03T04:10:58;4.95;;;1.90;;
28431;SDS011;15664;51.302;7.744;2022-09-03T04:13:27;2.80;;;1.60;;
28431;SDS011;15664;51.302;7.744;2022-09-03T04:16:00;3.30;;;1.80;;
28431;SDS011;15664;51.302;7.744;2022-09-03T04:18:26;3.20;;;1.60;;
28431;SDS011;15664;51.302;7.744;2022-09-03T04:20:51;3.40;;;2.00;;
28431;SDS011;15664;51.302;7.744;2022-09-03T04:23:16;3.10;;;1.77;;
28431;SDS011;15664;51.302;7.744;2022-09-03T04:25:42;3.08;;;1.58;;
28431;SDS011;15664;51.302;7.744;2022-09-03T04:28:07;3.63;;;1.80;;
28431;SDS011;15664;51.302;7.744;2022-09-03T04:30:32;5.37;;;1.83;;
28431;SDS011;15664;51.302;7.744;2022-09-03T04:32:58;3.20;;;1.50;;
28431;SDS011;15664;51.302;7.744;2022-09-03T04:35:24;4.67;;;1.80;;
28431;SDS011;15664;51.302;7.744;2022-09-03T04:37:57;3.42;;;1.85;;
28431;SDS011;15664;51.302;7.744;2022-09-03T04:40:22;3.77;;;1.60;;
28431;SDS011;15664;51.302;7.744;2022-09-03T04:42:48;3.63;;;1.50;;
28431;SDS011;15664;51.302;7.744;2022-09-03T04:45:13;4.57;;;1.90;;
28431;SDS011;15664;51.302;7.744;2022-09-03T04:47:42;4.03;;;1.85;;
28431;SDS011;15664;51.302;7.744;2022-09-03T04:50:11;3.83;;;1.75;;
28431;SDS011;15664;51.302;7.744;2022-09-03T04:52:37;2.90;;;1.77;;
28431;SDS011;15664;51.302;7.744;2022-09-03T04:55:03;3.00;;;1.70;;
28431;SDS011;15664;51.302;7.744;2022-09-03T04:57:28;3.55;;;1.75;;
28431;SDS011;15664;51.302;7.744;2022-09-03T04:59:58;3.65;;;1.60;;
28431;SDS011;15664;51.302;7.744;2022-09-03T05:02:24;3.33;;;1.90;;
28431;SDS011;15664;51.302;7.744;2022-09-03T05:04:49;4.50;;;1.70;;
28431;SDS011;15664;51.302;7.744;2022-09-03T05:07:15;3.78;;;1.70;;
28431;SDS011;15664;51.302;7.744;2022-09-03T05:09:40;3.03;;;1.50;;
28431;SDS011;15664;51.302;7.744;2022-09-03T05:12:05;2.73;;;1.50;;
28431;SDS011;15664;51.302;7.744;2022-09-03T05:14:31;3.77;;;1.80;;
28431;SDS011;15664;51.302;7.744;2022-09-03T05:16:56;4.53;;;2.20;;
28431;SDS011;15664;51.302;7.744;2022-09-03T05:19:21;4.37;;;1.90;;
28431;SDS011;15664;51.302;7.744;2022-09-03T05:21:46;4.53;;;1.60;;
28431;SDS011;15664;51.302;7.744;2022-09-03T05:24:12;4.23;;;1.73;;
28431;SDS011;15664;51.302;7.744;2022-09-03T05:26:38;3.25;;;1.60;;
28431;SDS011;15664;51.302;7.744;2022-09-03T05:29:05;4.23;;;1.83;;
28431;SDS011;15664;51.302;7.744;2022-09-03T05:31:35;3.88;;;1.58;;
28431;SDS011;15664;51.302;7.744;2022-09-03T05:34:05;3.75;;;1.90;;
28431;SDS011;15664;51.302;7.744;2022-09-03T05:36:32;3.30;;;1.80;;
28431;SDS011;15664;51.302;7.744;2022-09-03T05:39:00;4.07;;;1.60;;
28431;SDS011;15664;51.302;7.744;2022-09-03T05:41:26;2.85;;;1.70;;
28431;SDS011;15664;51.302;7.744;2022-09-03T05:43:53;3.43;;;1.50;;
28431;SDS011;15664;51.302;7.744;2022-09-03T05:46:20;3.45;;;1.50;;
28431;SDS011;15664;51.302;7.744;2022-09-03T05:48:54;3.88;;;1.40;;
28431;SDS011;15664;51.302;7.744;2022-09-03T05:51:19;3.83;;;1.63;;
28431;SDS011;15664;51.302;7.744;2022-09-03T05:53:45;5.40;;;1.90;;
28431;SDS011;15664;51.302;7.744;2022-09-03T05:56:13;3.20;;;1.52;;
28431;SDS011;15664;51.302;7.744;2022-09-03T05:58:48;3.55;;;1.80;;
28431;SDS011;15664;51.302;7.744;2022-09-03T06:01:25;3.55;;;1.48;;
28431;SDS011;15664;51.302;7.744;2022-09-03T06:03:53;4.90;;;1.87;;
28431;SDS011;15664;51.302;7.744;2022-09-03T06:06:19;2.67;;;1.50;;
28431;SDS011;15664;51.302;7.744;2022-09-03T06:08:49;3.22;;;1.65;;
28431;SDS011;15664;51.302;7.744;2022-09-03T06:11:22;3.88;;;1.65;;
28431;SDS011;15664;51.302;7.744;2022-09-03T06:13:52;2.22;;;1.20;;
28431;SDS011;15664;51.302;7.744;2022-09-03T06:16:21;3.47;;;1.70;;
28431;SDS011;15664;51.302;7.744;2022-09-03T06:18:47;3.65;;;1.70;;
28431;SDS011;15664;51.302;7.744;2022-09-03T06:21:13;3.50;;;1.67;;
28431;SDS011;15664;51.302;7.744;2022-09-03T06:23:39;4.03;;;1.60;;
28431;SDS011;15664;51.302;7.744;2022-09-03T06:26:06;4.18;;;1.83;;
28431;SDS011;15664;51.302;7.744;2022-09-03T06:28:36;5.68;;;1.42;;
28431;SDS011;15664;51.302;7.744;2022-09-03T06:31:04;3.30;;;1.65;;
28431;SDS011;15664;51.302;7.744;2022-09-03T06:33:32;4.27;;;1.53;;
28431;SDS011;15664;51.302;7.744;2022-09-03T06:35:59;3.10;;;1.80;;
28431;SDS011;15664;51.302;7.744;2022-09-03T06:38:27;2.20;;;1.30;;
28431;SDS011;15664;51.302;7.744;2022-09-03T06:40:56;4.05;;;1.60;;
28431;SDS011;15664;51.302;7.744;2022-09-03T06:43:26;4.32;;;1.80;;
28431;SDS011;15664;51.302;7.744;2022-09-03T06:46:02;3.57;;;1.70;;
28431;SDS011;15664;51.302;7.744;2022-09-03T06:48:29;4.75;;;1.92;;
28431;SDS011;15664;51.302;7.744;2022-09-03T06:50:56;3.38;;;1.67;;
28431;SDS011;15664;51.302;7.744;2022-09-03T06:53:28;3.65;;;1.55;;
28431;SDS011;15664;51.302;7.744;2022-09-03T06:55:59;4.32;;;1.52;;
28431;SDS011;15664;51.302;7.744;2022-09-03T06:58:33;3.40;;;1.53;;
28431;SDS011;15664;51.302;7.744;2022-09-03T07:01:08;4.75;;;1.63;;
28431;SDS011;15664;51.302;7.744;2022-09-03T07:03:38;5.35;;;1.80;;
28431;SDS011;15664;51.302;7.744;2022-09-03T07:06:06;3.63;;;1.52;;
28431;SDS011;15664;51.302;7.744;2022-09-03T07:08:33;4.60;;;1.58;;
28431;SDS011;15664;51.302;7.744;2022-09-03T07:10:59;3.57;;;1.67;;
28431;SDS011;15664;51.302;7.744;2022-09-03T07:13:29;5.38;;;1.70;;
28431;SDS011;15664;51.302;7.744;2022-09-03T07:16:02;3.20;;;1.80;;
28431;SDS011;15664;51.302;7.744;2022-09-03T07:18:29;3.08;;;1.60;;
28431;SDS011;15664;51.302;7.744;2022-09-03T07:21:03;4.95;;;1.92;;
28431;SDS011;15664;51.302;7.744;2022-09-03T07:23:31;3.67;;;1.50;;
28431;SDS011;15664;51.302;7.744;2022-09-03T07:26:01;4.28;;;1.70;;
28431;SDS011;15664;51.302;7.744;2022-09-03T07:28:29;2.95;;;1.73;;
28431;SDS011;15664;51.302;7.744;2022-09-03T07:31:00;3.57;;;1.70;;
28431;SDS011;15664;51.302;7.744;2022-09-03T07:33:37;3.55;;;1.80;;
28431;SDS011;15664;51.302;7.744;2022-09-03T07:36:03;3.35;;;1.90;;
28431;SDS011;15664;51.302;7.744;2022-09-03T07:38:31;4.50;;;1.70;;
28431;SDS011;15664;51.302;7.744;2022-09-03T07:40:58;3.10;;;1.60;;
28431;SDS011;15664;51.302;7.744;2022-09-03T07:43:26;2.77;;;1.60;;
28431;SDS011;15664;51.302;7.744;2022-09-03T07:45:53;4.15;;;1.83;;
28431;SDS011;15664;51.302;7.744;2022-09-03T07:48:19;4.55;;;2.08;;
28431;SDS011;15664;51.302;7.744;2022-09-03T07:50:45;2.93;;;1.60;;
28431;SDS011;15664;51.302;7.744;2022-09-03T07:53:11;3.70;;;1.70;;
28431;SDS011;15664;51.302;7.744;2022-09-03T07:55:37;3.67;;;1.67;;
28431;SDS011;15664;51.302;7.744;2022-09-03T07:58:02;2.83;;;1.50;;
28431;SDS011;15664;51.302;7.744;2022-09-03T08:00:27;3.97;;;1.60;;
28431;SDS011;15664;51.302;7.744;2022-09-03T08:02:53;3.40;;;1.70;;
28431;SDS011;15664;51.302;7.744;2022-09-03T08:05:19;5.60;;;2.20;;
28431;SDS011;15664;51.302;7.744;2022-09-03T08:07:45;3.97;;;1.63;;
28431;SDS011;15664;51.302;7.744;2022-09-03T08:10:12;3.17;;;1.70;;
28431;SDS011;15664;51.302;7.744;2022-09-03T08:12:38;3.45;;;1.90;;
28431;SDS011;15664;51.302;7.744;2022-09-03T08:15:04;3.37;;;1.80;;
28431;SDS011;15664;51.302;7.744;2022-09-03T08:17:29;4.00;;;1.90;;
28431;SDS011;15664;51.302;7.744;2022-09-03T08:19:55;4.43;;;1.90;;
28431;SDS011;15664;51.302;7.744;2022-09-03T08:22:22;3.30;;;1.50;;
28431;SDS011;15664;51.302;7.744;2022-09-03T08:24:49;4.63;;;1.75;;
28431;SDS011;15664;51.302;7.744;2022-09-03T08:27:15;4.53;;;1.90;;
28431;SDS011;15664;51.302;7.744;2022-09-03T08:29:40;4.10;;;1.80;;
28431;SDS011;15664;51.302;7.744;2022-09-03T08:32:06;4.23;;;1.53;;
28431;SDS011;15664;51.302;7.744;2022-09-03T08:34:31;3.87;;;1.80;;
28431;SDS011;15664;51.302;7.744;2022-09-03T08:36:56;4.97;;;1.80;;
28431;SDS011;15664;51.302;7.744;2022-09-03T08:39:25;6.18;;;1.80;;
28431;SDS011;15664;51.302;7.744;2022-09-03T08:42:09;3.53;;;1.60;;
28431;SDS011;15664;51.302;7.744;2022-09-03T08:44:48;3.60;;;1.90;;
28431;SDS011;15664;51.302;7.744;2022-09-03T08:47:22;3.85;;;2.03;;
28431;SDS011;15664;51.302;7.744;2022-09-03T08:50:03;6.60;;;2.20;;
28431;SDS011;15664;51.302;7.744;2022-09-03T08:52:41;2.95;;;1.50;;
28431;SDS011;15664;51.302;7.744;2022-09-03T08:55:36;3.75;;;2.00;;
28431;SDS011;15664;51.302;7.744;2022-09-03T08:58:26;3.85;;;2.10;;
28431;SDS011;15664;51.302;7.744;2022-09-03T09:00:57;6.20;;;1.90;;
28431;SDS011;15664;51.302;7.744;2022-09-03T09:09:30;4.90;;;2.10;;
28431;SDS011;15664;51.302;7.744;2022-09-03T09:14:53;3.55;;;1.80;;
28431;SDS011;15664;51.302;7.744;2022-09-03T09:20:44;3.92;;;2.03;;
28431;SDS011;15664;51.302;7.744;2022-09-03T09:23:14;5.57;;;1.80;;
28431;SDS011;15664;51.302;7.744;2022-09-03T09:25:48;4.97;;;2.10;;
28431;SDS011;15664;51.302;7.744;2022-09-03T09:28:18;4.47;;;1.70;;
28431;SDS011;15664;51.302;7.744;2022-09-03T09:30:46;4.22;;;1.90;;
28431;SDS011;15664;51.302;7.744;2022-09-03T09:33:13;4.22;;;1.92;;
28431;SDS011;15664;51.302;7.744;2022-09-03T09:35:39;4.30;;;1.45;;
28431;SDS011;15664;51.302;7.744;2022-09-03T09:38:07;4.65;;;1.80;;
28431;SDS011;15664;51.302;7.744;2022-09-03T09:40:37;4.60;;;2.50;;
28431;SDS011;15664;51.302;7.744;2022-09-03T09:43:14;3.00;;;1.80;;
28431;SDS011;15664;51.302;7.744;2022-09-03T09:45:44;4.88;;;2.00;;
28431;SDS011;15664;51.302;7.744;2022-09-03T09:48:30;3.72;;;2.05;;
28431;SDS011;15664;51.302;7.744;2022-09-03T09:51:21;3.47;;;1.80;;
28431;SDS011;15664;51.302;7.744;2022-09-03T09:53:58;4.18;;;2.03;;
28431;SDS011;15664;51.302;7.744;2022-09-03T09:56:34;4.72;;;2.33;;
28431;SDS011;15664;51.302;7.744;2022-09-03T09:59:09;4.20;;;2.30;;
28431;SDS011;15664;51.302;7.744;2022-09-03T10:01:39;3.55;;;1.90;;
28431;SDS011;15664;51.302;7.744;2022-09-03T10:04:07;3.95;;;2.30;;
28431;SDS011;15664;51.302;7.744;2022-09-03T10:06:35;5.25;;;2.30;;
28431;SDS011;15664;51.302;7.744;2022-09-03T10:09:30;5.22;;;2.30;;
28431;SDS011;15664;51.302;7.744;2022-09-03T10:23:29;7.63;;;2.58;;
28431;SDS011;15664;51.302;7.744;2022-09-03T10:26:12;6.80;;;2.58;;
28431;SDS011;15664;51.302;7.744;2022-09-03T10:28:41;6.25;;;2.22;;
28431;SDS011;15664;51.302;7.744;2022-09-03T10:31:14;4.03;;;2.00;;
28431;SDS011;15664;51.302;7.744;2022-09-03T10:40:01;4.32;;;2.30;;
28431;SDS011;15664;51.302;7.744;2022-09-03T10:42:42;4.28;;;2.53;;
28431;SDS011;15664;51.302;7.744;2022-09-03T10:45:20;4.80;;;2.50;;
28431;SDS011;15664;51.302;7.744;2022-09-03T10:48:38;3.25;;;1.80;;
28431;SDS011;15664;51.302;7.744;2022-09-03T10:50:53;4.93;;;2.10;;
28431;SDS011;15664;51.302;7.744;2022-09-03T10:56:11;4.72;;;2.00;;
28431;SDS011;15664;51.302;7.744;2022-09-03T10:58:47;5.75;;;2.30;;
28431;SDS011;15664;51.302;7.744;2022-09-03T11:01:28;4.80;;;2.50;;
28431;SDS011;15664;51.302;7.744;2022-09-03T11:04:25;4.73;;;2.17;;
28431;SDS011;15664;51.302;7.744;2022-09-03T11:07:03;4.93;;;2.40;;
28431;SDS011;15664;51.302;7.744;2022-09-03T11:09:41;4.35;;;2.10;;
28431;SDS011;15664;51.302;7.744;2022-09-03T11:12:16;7.13;;;2.17;;
28431;SDS011;15664;51.302;7.744;2022-09-03T11:14:52;5.30;;;2.40;;
28431;SDS011;15664;51.302;7.744;2022-09-03T11:17:41;5.97;;;1.95;;
28431;SDS011;15664;51.302;7.744;2022-09-03T11:22:38;4.60;;;2.50;;
28431;SDS011;15664;51.302;7.744;2022-09-03T11:25:05;6.35;;;2.50;;
28431;SDS011;15664;51.302;7.744;2022-09-03T11:32:40;5.32;;;2.28;;
28431;SDS011;15664;51.302;7.744;2022-09-03T11:35:59;6.10;;;2.72;;
28431;SDS011;15664;51.302;7.744;2022-09-03T11:38:00;5.28;;;2.20;;
28431;SDS011;15664;51.302;7.744;2022-09-03T11:40:31;4.70;;;2.20;;
28431;SDS011;15664;51.302;7.744;2022-09-03T11:43:12;5.63;;;2.20;;
28431;SDS011;15664;51.302;7.744;2022-09-03T11:51:18;5.00;;;2.65;;
28431;SDS011;15664;51.302;7.744;2022-09-03T11:53:52;7.53;;;2.88;;
28431;SDS011;15664;51.302;7.744;2022-09-03T11:56:19;5.05;;;2.63;;
28431;SDS011;15664;51.302;7.744;2022-09-03T11:58:45;5.63;;;2.65;;
28431;SDS011;15664;51.302;7.744;2022-09-03T12:01:12;5.53;;;2.38;;
28431;SDS011;15664;51.302;7.744;2022-09-03T12:03:44;4.70;;;2.60;;
28431;SDS011;15664;51.302;7.744;2022-09-03T12:14:08;5.35;;;2.90;;
28431;SDS011;15664;51.302;7.744;2022-09-03T12:19:55;5.77;;;2.90;;
28431;SDS011;15664;51.302;7.744;2022-09-03T12:22:22;4.57;;;2.20;;
28431;SDS011;15664;51.302;7.744;2022-09-03T12:24:50;5.22;;;2.40;;
28431;SDS011;15664;51.302;7.744;2022-09-03T12:32:28;5.67;;;2.30;;
28431;SDS011;15664;51.302;7.744;2022-09-03T12:34:56;4.53;;;2.50;;
28431;SDS011;15664;51.302;7.744;2022-09-03T12:37:23;5.05;;;2.42;;
28431;SDS011;15664;51.302;7.744;2022-09-03T12:39:51;4.22;;;1.98;;
28431;SDS011;15664;51.302;7.744;2022-09-03T12:42:28;3.88;;;2.35;;
28431;SDS011;15664;51.302;7.744;2022-09-03T12:44:55;3.73;;;2.10;;
28431;SDS011;15664;51.302;7.744;2022-09-03T12:47:29;4.50;;;2.40;;
28431;SDS011;15664;51.302;7.744;2022-09-03T12:50:03;4.43;;;2.40;;
28431;SDS011;15664;51.302;7.744;2022-09-03T13:00:25;4.40;;;2.50;;
28431;SDS011;15664;51.302;7.744;2022-09-03T13:06:07;5.43;;;2.40;;
28431;SDS011;15664;51.302;7.744;2022-09-03T13:08:27;4.65;;;2.50;;
28431;SDS011;15664;51.302;7.744;2022-09-03T13:10:57;4.70;;;2.35;;
28431;SDS011;15664;51.302;7.744;2022-09-03T13:13:28;5.78;;;2.10;;
28431;SDS011;15664;51.302;7.744;2022-09-03T13:26:41;3.60;;;1.90;;
28431;SDS011;15664;51.302;7.744;2022-09-03T13:29:31;3.60;;;1.80;;
28431;SDS011;15664;51.302;7.744;2022-09-03T13:32:10;3.50;;;1.77;;
28431;SDS011;15664;51.302;7.744;2022-09-03T13:34:50;4.50;;;1.63;;
28431;SDS011;15664;51.302;7.744;2022-09-03T13:42:55;3.63;;;2.08;;
28431;SDS011;15664;51.302;7.744;2022-09-03T13:45:34;3.47;;;1.90;;
28431;SDS011;15664;51.302;7.744;2022-09-03T13:48:11;3.88;;;2.03;;
28431;SDS011;15664;51.302;7.744;2022-09-03T13:51:02;3.67;;;1.98;;
28431;SDS011;15664;51.302;7.744;2022-09-03T13:53:39;3.90;;;2.00;;
28431;SDS011;15664;51.302;7.744;2022-09-03T13:56:33;3.78;;;2.17;;
28431;SDS011;15664;51.302;7.744;2022-09-03T13:59:11;4.50;;;2.00;;
28431;SDS011;15664;51.302;7.744;2022-09-03T14:04:48;3.33;;;1.80;;
28431;SDS011;15664;51.302;7.744;2022-09-03T14:07:40;4.20;;;2.00;;
28431;SDS011;15664;51.302;7.744;2022-09-03T14:10:43;4.15;;;2.08;;
28431;SDS011;15664;51.302;7.744;2022-09-03T14:18:32;3.58;;;1.85;;
28431;SDS011;15664;51.302;7.744;2022-09-03T14:21:04;3.05;;;1.50;;
28431;SDS011;15664;51.302;7.744;2022-09-03T14:23:44;3.10;;;1.83;;
28431;SDS011;15664;51.302;7.744;2022-09-03T14:26:16;4.90;;;1.70;;
28431;SDS011;15664;51.302;7.744;2022-09-03T14:28:47;4.65;;;1.90;;
28431;SDS011;15664;51.302;7.744;2022-09-03T14:34:10;4.15;;;1.80;;
28431;SDS011;15664;51.302;7.744;2022-09-03T14:42:50;3.55;;;1.90;;
28431;SDS011;15664;51.302;7.744;2022-09-03T14:48:27;4.93;;;1.60;;
28431;SDS011;15664;51.302;7.744;2022-09-03T14:51:21;4.15;;;1.95;;
28431;SDS011;15664;51.302;7.744;2022-09-03T14:54:11;4.63;;;1.90;;
28431;SDS011;15664;51.302;7.744;2022-09-03T14:57:02;3.28;;;1.60;;
28431;SDS011;15664;51.302;7.744;2022-09-03T15:07:32;4.37;;;1.80;;
28431;SDS011;15664;51.302;7.744;2022-09-03T15:13:05;5.78;;;2.20;;
28431;SDS011;15664;51.302;7.744;2022-09-03T15:21:01;3.73;;;1.87;;
28431;SDS011;15664;51.302;7.744;2022-09-03T15:23:53;6.22;;;2.72;;
28431;SDS011;15664;51.302;7.744;2022-09-03T15:32:10;12.35;;;4.65;;
28431;SDS011;15664;51.302;7.744;2022-09-03T15:40:21;4.60;;;1.80;;
28431;SDS011;15664;51.302;7.744;2022-09-03T15:43:22;3.83;;;1.67;;
28431;SDS011;15664;51.302;7.744;2022-09-03T15:45:55;4.28;;;2.03;;
28431;SDS011;15664;51.302;7.744;2022-09-03T15:48:32;5.20;;;1.90;;
28431;SDS011;15664;51.302;7.744;2022-09-03T15:51:18;4.47;;;1.88;;
28431;SDS011;15664;51.302;7.744;2022-09-03T15:53:56;4.75;;;2.15;;
28431;SDS011;15664;51.302;7.744;2022-09-03T15:56:34;3.70;;;2.10;;
28431;SDS011;15664;51.302;7.744;2022-09-03T15:59:19;6.75;;;2.17;;
28431;SDS011;15664;51.302;7.744;2022-09-03T16:05:18;4.22;;;2.10;;
28431;SDS011;15664;51.302;7.744;2022-09-03T16:15:11;4.65;;;1.98;;
28431;SDS011;15664;51.302;7.744;2022-09-03T16:17:50;3.97;;;2.30;;
28431;SDS011;15664;51.302;7.744;2022-09-03T16:20:31;5.47;;;2.20;;
28431;SDS011;15664;51.302;7.744;2022-09-03T16:23:10;3.88;;;1.98;;
28431;SDS011;15664;51.302;7.744;2022-09-03T16:25:48;4.13;;;2.00;;
28431;SDS011;15664;51.302;7.744;2022-09-03T16:28:23;5.20;;;2.15;;
28431;SDS011;15664;51.302;7.744;2022-09-03T16:36:51;5.63;;;2.15;;
28431;SDS011;15664;51.302;7.744;2022-09-03T16:39:30;4.32;;;2.20;;
28431;SDS011;15664;51.302;7.744;2022-09-03T16:45:04;4.83;;;2.20;;
28431;SDS011;15664;51.302;7.744;2022-09-03T16:50:23;3.83;;;1.80;;
28431;SDS011;15664;51.302;7.744;2022-09-03T16:53:05;5.13;;;2.10;;
28431;SDS011;15664;51.302;7.744;2022-09-03T17:01:27;3.97;;;1.77;;
28431;SDS011;15664;51.302;7.744;2022-09-03T17:07:36;5.28;;;1.90;;
28431;SDS011;15664;51.302;7.744;2022-09-03T17:10:20;4.55;;;2.13;;
28431;SDS011;15664;51.302;7.744;2022-09-03T17:18:25;3.72;;;1.90;;
28431;SDS011;15664;51.302;7.744;2022-09-03T17:32:29;5.15;;;2.58;;
28431;SDS011;15664;51.302;7.744;2022-09-03T17:35:09;4.03;;;2.30;;
28431;SDS011;15664;51.302;7.744;2022-09-03T17:37:51;4.30;;;2.10;;
28431;SDS011;15664;51.302;7.744;2022-09-03T17:40:36;5.00;;;2.10;;
28431;SDS011;15664;51.302;7.744;2022-09-03T17:43:14;4.00;;;1.85;;
28431;SDS011;15664;51.302;7.744;2022-09-03T17:48:41;5.55;;;2.13;;
28431;SDS011;15664;51.302;7.744;2022-09-03T17:56:42;4.32;;;2.00;;
28431;SDS011;15664;51.302;7.744;2022-09-03T18:02:08;4.03;;;2.10;;
28431;SDS011;15664;51.302;7.744;2022-09-03T18:11:06;4.20;;;2.20;;
28431;SDS011;15664;51.302;7.744;2022-09-03T18:13:44;5.07;;;2.30;;
28431;SDS011;15664;51.302;7.744;2022-09-03T18:19:02;6.85;;;2.17;;
28431;SDS011;15664;51.302;7.744;2022-09-03T18:21:28;4.30;;;2.10;;
28431;SDS011;15664;51.302;7.744;2022-09-03T18:30:23;3.80;;;2.10;;
28431;SDS011;15664;51.302;7.744;2022-09-03T18:33:08;4.45;;;2.50;;
28431;SDS011;15664;51.302;7.744;2022-09-03T18:35:52;6.90;;;2.43;;
28431;SDS011;15664;51.302;7.744;2022-09-03T18:38:37;4.45;;;2.00;;
28431;SDS011;15664;51.302;7.744;2022-09-03T18:41:39;5.50;;;2.60;;
28431;SDS011;15664;51.302;7.744;2022-09-03T18:44:42;4.32;;;2.50;;
28431;SDS011;15664;51.302;7.744;2022-09-03T18:50:40;5.60;;;2.50;;
28431;SDS011;15664;51.302;7.744;2022-09-03T18:53:42;5.25;;;2.58;;
28431;SDS011;15664;51.302;7.744;2022-09-03T18:56:45;4.53;;;2.53;;
28431;SDS011;15664;51.302;7.744;2022-09-03T19:11:50;5.20;;;2.20;;
28431;SDS011;15664;51.302;7.744;2022-09-03T19:14:52;6.22;;;2.40;;
28431;SDS011;15664;51.302;7.744;2022-09-03T19:24:13;6.13;;;2.50;;
28431;SDS011;15664;51.302;7.744;2022-09-03T19:30:11;6.15;;;2.60;;
28431;SDS011;15664;51.302;7.744;2022-09-03T19:35:59;5.10;;;2.60;;
28431;SDS011;15664;51.302;7.744;2022-09-03T19:39:00;6.35;;;2.70;;
28431;SDS011;15664;51.302;7.744;2022-09-03T19:41:58;4.60;;;2.67;;
28431;SDS011;15664;51.302;7.744;2022-09-03T19:48:05;5.93;;;2.63;;
28431;SDS011;15664;51.302;7.744;2022-09-03T19:51:35;5.63;;;2.50;;
28431;SDS011;15664;51.302;7.744;2022-09-03T19:54:25;5.85;;;2.42;;
28431;SDS011;15664;51.302;7.744;2022-09-03T19:57:11;6.15;;;2.90;;
28431;SDS011;15664;51.302;7.744;2022-09-03T19:59:58;6.32;;;2.50;;
28431;SDS011;15664;51.302;7.744;2022-09-03T20:02:45;4.63;;;2.67;;
28431;SDS011;15664;51.302;7.744;2022-09-03T20:05:31;4.40;;;2.30;;
28431;SDS011;15664;51.302;7.744;2022-09-03T20:08:16;4.95;;;2.30;;
28431;SDS011;15664;51.302;7.744;2022-09-03T20:11:00;5.03;;;2.58;;
28431;SDS011;15664;51.302;7.744;2022-09-03T20:13:27;5.30;;;2.70;;
28431;SDS011;15664;51.302;7.744;2022-09-03T20:16:24;5.53;;;2.65;;
28431;SDS011;15664;51.302;7.744;2022-09-03T20:21:38;5.00;;;2.67;;
28431;SDS011;15664;51.302;7.744;2022-09-03T20:24:32;6.05;;;2.88;;
28431;SDS011;15664;51.302;7.744;2022-09-03T20:27:12;5.20;;;2.75;;
28431;SDS011;15664;51.302;7.744;2022-09-03T20:30:01;4.30;;;2.50;;